sensor_id;sensor_type;location;lat;lon;timestamp;P1;durP1;ratioP1;P2;durP2;ratioP2
76848;SDS011;65814;51.134;16.980;2023-10-08T00:01:24;0.40;;;0.30;;
76848;SDS011;65814;51.134;16.980;2023-10-08T00:03:52;2.70;;;0.80;;
76848;SDS011;65814;51.134;16.980;2023-10-08T00:06:26;1.20;;;0.70;;
76848;SDS011;65814;51.134;16.980;2023-10-08T00:09:04;1.80;;;0.70;;
76848;SDS011;65814;51.134;16.980;2023-10-08T00:11:35;4.20;;;1.20;;
76848;SDS011;65814;51.134;16.980;2023-10-08T00:14:04;1.40;;;0.80;;
76848;SDS011;65814;51.134;16.980;2023-10-08T00:16:37;1.30;;;0.70;;
76848;SDS011;65814;51.134;16.980;2023-10-08T00:19:09;1.60;;;0.90;;
76848;SDS011;65814;51.134;16.980;2023-10-08T00:21:52;1.30;;;0.70;;
76848;SDS011;65814;51.134;16.980;2023-10-08T00:24:21;2.50;;;1.10;;
76848;SDS011;65814;51.134;16.980;2023-10-08T00:26:59;2.00;;;1.10;;
76848;SDS011;65814;51.134;16.980;2023-10-08T00:29:34;1.60;;;0.70;;
76848;SDS011;65814;51.134;16.980;2023-10-08T00:32:06;1.50;;;0.80;;
76848;SDS011;65814;51.134;16.980;2023-10-08T00:34:40;1.20;;;0.90;;
76848;SDS011;65814;51.134;16.980;2023-10-08T00:37:10;2.10;;;0.80;;
76848;SDS011;65814;51.134;16.980;2023-10-08T00:39:42;2.10;;;0.90;;
76848;SDS011;65814;51.134;16.980;2023-10-08T00:42:15;1.60;;;1.10;;
76848;SDS011;65814;51.134;16.980;2023-10-08T00:44:45;3.80;;;1.00;;
76848;SDS011;65814;51.134;16.980;2023-10-08T00:47:20;2.50;;;0.70;;
76848;SDS011;65814;51.134;16.980;2023-10-08T00:49:54;0.70;;;0.50;;
76848;SDS011;65814;51.134;16.980;2023-10-08T00:52:30;2.10;;;1.00;;
76848;SDS011;65814;51.134;16.980;2023-10-08T00:55:07;1.40;;;0.60;;
76848;SDS011;65814;51.134;16.980;2023-10-08T00:57:48;4.60;;;1.50;;
76848;SDS011;65814;51.134;16.980;2023-10-08T01:00:21;3.20;;;1.00;;
76848;SDS011;65814;51.134;16.980;2023-10-08T01:02:50;2.10;;;0.70;;
76848;SDS011;65814;51.134;16.980;2023-10-08T01:05:29;1.20;;;0.60;;
76848;SDS011;65814;51.134;16.980;2023-10-08T01:08:16;3.20;;;1.10;;
76848;SDS011;65814;51.134;16.980;2023-10-08T01:11:16;1.30;;;0.80;;
76848;SDS011;65814;51.134;16.980;2023-10-08T01:13:53;1.70;;;0.90;;
76848;SDS011;65814;51.134;16.980;2023-10-08T01:16:23;2.90;;;1.30;;
76848;SDS011;65814;51.134;16.980;2023-10-08T01:19:09;2.50;;;1.00;;
76848;SDS011;65814;51.134;16.980;2023-10-08T01:21:45;2.60;;;1.40;;
76848;SDS011;65814;51.134;16.980;2023-10-08T01:24:15;1.90;;;1.20;;
76848;SDS011;65814;51.134;16.980;2023-10-08T01:26:45;1.20;;;1.00;;
76848;SDS011;65814;51.134;16.980;2023-10-08T01:29:16;2.20;;;0.90;;
76848;SDS011;65814;51.134;16.980;2023-10-08T01:31:48;2.20;;;1.10;;
76848;SDS011;65814;51.134;16.980;2023-10-08T01:34:24;1.00;;;0.60;;
76848;SDS011;65814;51.134;16.980;2023-10-08T01:37:19;1.80;;;0.80;;
76848;SDS011;65814;51.134;16.980;2023-10-08T01:39:54;0.70;;;0.60;;
76848;SDS011;65814;51.134;16.980;2023-10-08T01:42:28;1.70;;;1.00;;
76848;SDS011;65814;51.134;16.980;2023-10-08T01:44:59;1.00;;;0.90;;
76848;SDS011;65814;51.134;16.980;2023-10-08T01:47:28;4.50;;;1.20;;
76848;SDS011;65814;51.134;16.980;2023-10-08T01:50:03;1.50;;;0.70;;
76848;SDS011;65814;51.134;16.980;2023-10-08T01:52:40;3.80;;;0.70;;
76848;SDS011;65814;51.134;16.980;2023-10-08T01:55:08;1.10;;;0.70;;
76848;SDS011;65814;51.134;16.980;2023-10-08T01:57:41;1.10;;;0.60;;
76848;SDS011;65814;51.134;16.980;2023-10-08T02:00:13;2.70;;;1.10;;
76848;SDS011;65814;51.134;16.980;2023-10-08T02:02:47;2.70;;;1.60;;
76848;SDS011;65814;51.134;16.980;2023-10-08T02:05:18;1.50;;;0.80;;
76848;SDS011;65814;51.134;16.980;2023-10-08T02:07:49;3.10;;;1.00;;
76848;SDS011;65814;51.134;16.980;2023-10-08T02:10:24;2.80;;;0.90;;
76848;SDS011;65814;51.134;16.980;2023-10-08T02:15:49;1.90;;;0.80;;
76848;SDS011;65814;51.134;16.980;2023-10-08T02:18:21;0.70;;;0.50;;
76848;SDS011;65814;51.134;16.980;2023-10-08T02:20:53;2.80;;;0.90;;
76848;SDS011;65814;51.134;16.980;2023-10-08T02:23:27;3.50;;;0.80;;
76848;SDS011;65814;51.134;16.980;2023-10-08T02:25:56;3.20;;;1.20;;
76848;SDS011;65814;51.134;16.980;2023-10-08T02:28:26;1.70;;;0.80;;
76848;SDS011;65814;51.134;16.980;2023-10-08T02:31:10;1.10;;;0.70;;
76848;SDS011;65814;51.134;16.980;2023-10-08T02:33:38;1.20;;;0.90;;
76848;SDS011;65814;51.134;16.980;2023-10-08T02:36:06;2.50;;;0.80;;
76848;SDS011;65814;51.134;16.980;2023-10-08T02:38:34;1.90;;;0.70;;
76848;SDS011;65814;51.134;16.980;2023-10-08T02:41:07;1.90;;;0.90;;
76848;SDS011;65814;51.134;16.980;2023-10-08T02:43:38;3.70;;;1.10;;
76848;SDS011;65814;51.134;16.980;2023-10-08T02:46:10;3.80;;;1.30;;
76848;SDS011;65814;51.134;16.980;2023-10-08T02:48:46;2.40;;;0.90;;
76848;SDS011;65814;51.134;16.980;2023-10-08T02:51:14;2.10;;;1.10;;
76848;SDS011;65814;51.134;16.980;2023-10-08T02:53:48;2.30;;;0.90;;
76848;SDS011;65814;51.134;16.980;2023-10-08T02:56:17;1.80;;;0.90;;
76848;SDS011;65814;51.134;16.980;2023-10-08T02:58:46;0.90;;;0.70;;
76848;SDS011;65814;51.134;16.980;2023-10-08T03:01:15;2.30;;;0.90;;
76848;SDS011;65814;51.134;16.980;2023-10-08T03:03:43;2.10;;;1.00;;
76848;SDS011;65814;51.134;16.980;2023-10-08T03:06:12;3.10;;;1.30;;
76848;SDS011;65814;51.134;16.980;2023-10-08T03:08:42;4.50;;;0.80;;
76848;SDS011;65814;51.134;16.980;2023-10-08T03:11:11;1.50;;;0.70;;
76848;SDS011;65814;51.134;16.980;2023-10-08T03:13:45;4.00;;;1.30;;
76848;SDS011;65814;51.134;16.980;2023-10-08T03:16:19;2.10;;;1.10;;
76848;SDS011;65814;51.134;16.980;2023-10-08T03:18:55;1.70;;;0.90;;
76848;SDS011;65814;51.134;16.980;2023-10-08T03:21:25;2.60;;;1.00;;
76848;SDS011;65814;51.134;16.980;2023-10-08T03:24:05;1.50;;;0.80;;
76848;SDS011;65814;51.134;16.980;2023-10-08T03:27:00;1.80;;;1.00;;
76848;SDS011;65814;51.134;16.980;2023-10-08T03:29:34;3.90;;;1.40;;
76848;SDS011;65814;51.134;16.980;2023-10-08T03:32:10;2.90;;;1.20;;
76848;SDS011;65814;51.134;16.980;2023-10-08T03:34:49;2.80;;;1.20;;
76848;SDS011;65814;51.134;16.980;2023-10-08T03:37:17;3.80;;;1.40;;
76848;SDS011;65814;51.134;16.980;2023-10-08T03:39:49;3.80;;;1.30;;
76848;SDS011;65814;51.134;16.980;2023-10-08T03:42:28;3.00;;;1.20;;
76848;SDS011;65814;51.134;16.980;2023-10-08T03:45:09;1.80;;;1.00;;
76848;SDS011;65814;51.134;16.980;2023-10-08T03:47:40;2.70;;;1.10;;
76848;SDS011;65814;51.134;16.980;2023-10-08T03:50:21;3.00;;;1.00;;
76848;SDS011;65814;51.134;16.980;2023-10-08T03:53:00;5.10;;;1.50;;
76848;SDS011;65814;51.134;16.980;2023-10-08T03:55:30;6.00;;;2.50;;
76848;SDS011;65814;51.134;16.980;2023-10-08T03:58:02;4.10;;;1.40;;
76848;SDS011;65814;51.134;16.980;2023-10-08T04:00:32;2.00;;;1.10;;
76848;SDS011;65814;51.134;16.980;2023-10-08T04:03:03;3.00;;;1.40;;
76848;SDS011;65814;51.134;16.980;2023-10-08T04:05:38;3.00;;;1.20;;
76848;SDS011;65814;51.134;16.980;2023-10-08T04:08:29;5.60;;;1.40;;
76848;SDS011;65814;51.134;16.980;2023-10-08T04:11:27;6.80;;;1.50;;
76848;SDS011;65814;51.134;16.980;2023-10-08T04:14:03;5.30;;;1.40;;
76848;SDS011;65814;51.134;16.980;2023-10-08T04:16:34;2.70;;;1.60;;
76848;SDS011;65814;51.134;16.980;2023-10-08T04:19:06;5.30;;;1.30;;
76848;SDS011;65814;51.134;16.980;2023-10-08T04:21:35;1.60;;;1.00;;
76848;SDS011;65814;51.134;16.980;2023-10-08T04:24:03;3.90;;;1.20;;
76848;SDS011;65814;51.134;16.980;2023-10-08T04:26:32;3.50;;;1.30;;
76848;SDS011;65814;51.134;16.980;2023-10-08T04:29:00;9.20;;;1.50;;
76848;SDS011;65814;51.134;16.980;2023-10-08T04:31:34;2.20;;;1.30;;
76848;SDS011;65814;51.134;16.980;2023-10-08T04:34:06;3.80;;;1.50;;
76848;SDS011;65814;51.134;16.980;2023-10-08T04:36:43;4.20;;;1.50;;
76848;SDS011;65814;51.134;16.980;2023-10-08T04:39:14;3.30;;;1.70;;
76848;SDS011;65814;51.134;16.980;2023-10-08T04:41:49;3.20;;;1.80;;
76848;SDS011;65814;51.134;16.980;2023-10-08T04:46:51;5.30;;;2.80;;
76848;SDS011;65814;51.134;16.980;2023-10-08T04:49:20;6.10;;;2.70;;
76848;SDS011;65814;51.134;16.980;2023-10-08T04:51:58;5.50;;;3.30;;
76848;SDS011;65814;51.134;16.980;2023-10-08T04:54:28;6.80;;;2.90;;
76848;SDS011;65814;51.134;16.980;2023-10-08T04:57:00;6.30;;;2.50;;
76848;SDS011;65814;51.134;16.980;2023-10-08T04:59:30;7.00;;;2.40;;
76848;SDS011;65814;51.134;16.980;2023-10-08T05:02:03;6.80;;;2.60;;
76848;SDS011;65814;51.134;16.980;2023-10-08T05:04:48;5.40;;;2.30;;
76848;SDS011;65814;51.134;16.980;2023-10-08T05:07:20;3.20;;;1.60;;
76848;SDS011;65814;51.134;16.980;2023-10-08T05:09:49;4.00;;;1.80;;
76848;SDS011;65814;51.134;16.980;2023-10-08T05:12:38;3.30;;;2.10;;
76848;SDS011;65814;51.134;16.980;2023-10-08T05:15:13;6.50;;;1.70;;
76848;SDS011;65814;51.134;16.980;2023-10-08T05:17:46;9.80;;;2.00;;
76848;SDS011;65814;51.134;16.980;2023-10-08T05:20:18;6.40;;;1.90;;
76848;SDS011;65814;51.134;16.980;2023-10-08T05:22:57;5.30;;;2.30;;
76848;SDS011;65814;51.134;16.980;2023-10-08T05:25:49;5.40;;;2.10;;
76848;SDS011;65814;51.134;16.980;2023-10-08T05:28:33;7.10;;;1.80;;
76848;SDS011;65814;51.134;16.980;2023-10-08T05:31:07;5.60;;;3.80;;
76848;SDS011;65814;51.134;16.980;2023-10-08T05:33:41;3.80;;;2.00;;
76848;SDS011;65814;51.134;16.980;2023-10-08T05:36:28;4.10;;;2.10;;
76848;SDS011;65814;51.134;16.980;2023-10-08T05:39:17;5.50;;;2.70;;
76848;SDS011;65814;51.134;16.980;2023-10-08T05:42:03;5.00;;;2.50;;
76848;SDS011;65814;51.134;16.980;2023-10-08T05:44:54;4.30;;;2.40;;
76848;SDS011;65814;51.134;16.980;2023-10-08T05:47:37;5.30;;;2.30;;
76848;SDS011;65814;51.134;16.980;2023-10-08T05:50:05;5.80;;;2.90;;
76848;SDS011;65814;51.134;16.980;2023-10-08T05:52:46;5.50;;;2.80;;
76848;SDS011;65814;51.134;16.980;2023-10-08T05:55:24;5.20;;;2.60;;
76848;SDS011;65814;51.134;16.980;2023-10-08T05:57:54;6.10;;;2.20;;
76848;SDS011;65814;51.134;16.980;2023-10-08T06:00:45;6.30;;;2.80;;
76848;SDS011;65814;51.134;16.980;2023-10-08T06:03:33;6.50;;;3.50;;
76848;SDS011;65814;51.134;16.980;2023-10-08T06:06:16;8.50;;;3.30;;
76848;SDS011;65814;51.134;16.980;2023-10-08T06:08:44;6.50;;;3.00;;
76848;SDS011;65814;51.134;16.980;2023-10-08T06:11:35;6.20;;;3.10;;
76848;SDS011;65814;51.134;16.980;2023-10-08T06:14:24;6.80;;;3.00;;
76848;SDS011;65814;51.134;16.980;2023-10-08T06:17:20;5.20;;;3.80;;
76848;SDS011;65814;51.134;16.980;2023-10-08T06:20:07;5.60;;;3.60;;
76848;SDS011;65814;51.134;16.980;2023-10-08T06:22:37;9.80;;;4.00;;
76848;SDS011;65814;51.134;16.980;2023-10-08T06:25:05;7.50;;;4.20;;
76848;SDS011;65814;51.134;16.980;2023-10-08T06:27:51;7.70;;;4.00;;
76848;SDS011;65814;51.134;16.980;2023-10-08T06:30:23;5.40;;;4.00;;
76848;SDS011;65814;51.134;16.980;2023-10-08T06:32:57;9.10;;;4.80;;
76848;SDS011;65814;51.134;16.980;2023-10-08T06:35:25;8.90;;;4.70;;
76848;SDS011;65814;51.134;16.980;2023-10-08T06:37:55;12.20;;;6.10;;
76848;SDS011;65814;51.134;16.980;2023-10-08T06:40:23;6.90;;;4.50;;
76848;SDS011;65814;51.134;16.980;2023-10-08T06:43:06;12.20;;;4.50;;
76848;SDS011;65814;51.134;16.980;2023-10-08T06:45:52;9.30;;;4.50;;
76848;SDS011;65814;51.134;16.980;2023-10-08T06:48:26;9.20;;;4.40;;
76848;SDS011;65814;51.134;16.980;2023-10-08T06:50:57;10.00;;;5.60;;
76848;SDS011;65814;51.134;16.980;2023-10-08T06:53:26;8.90;;;4.70;;
76848;SDS011;65814;51.134;16.980;2023-10-08T06:55:57;7.20;;;4.70;;
76848;SDS011;65814;51.134;16.980;2023-10-08T06:58:26;9.90;;;4.90;;
76848;SDS011;65814;51.134;16.980;2023-10-08T07:00:54;10.20;;;4.90;;
76848;SDS011;65814;51.134;16.980;2023-10-08T07:03:23;8.90;;;5.70;;
76848;SDS011;65814;51.134;16.980;2023-10-08T07:05:53;8.50;;;4.80;;
76848;SDS011;65814;51.134;16.980;2023-10-08T07:08:22;12.70;;;4.30;;
76848;SDS011;65814;51.134;16.980;2023-10-08T07:10:53;10.50;;;4.40;;
76848;SDS011;65814;51.134;16.980;2023-10-08T07:13:24;11.00;;;4.10;;
76848;SDS011;65814;51.134;16.980;2023-10-08T07:15:52;8.20;;;4.40;;
76848;SDS011;65814;51.134;16.980;2023-10-08T07:18:20;6.70;;;3.20;;
76848;SDS011;65814;51.134;16.980;2023-10-08T07:20:55;4.30;;;3.50;;
76848;SDS011;65814;51.134;16.980;2023-10-08T07:23:28;7.90;;;3.70;;
76848;SDS011;65814;51.134;16.980;2023-10-08T07:26:16;6.40;;;3.90;;
76848;SDS011;65814;51.134;16.980;2023-10-08T07:28:46;10.30;;;4.60;;
76848;SDS011;65814;51.134;16.980;2023-10-08T07:31:14;6.20;;;3.80;;
76848;SDS011;65814;51.134;16.980;2023-10-08T07:33:49;6.60;;;3.60;;
76848;SDS011;65814;51.134;16.980;2023-10-08T07:38:52;6.80;;;3.90;;
76848;SDS011;65814;51.134;16.980;2023-10-08T07:41:21;9.10;;;3.60;;
76848;SDS011;65814;51.134;16.980;2023-10-08T07:43:49;9.90;;;4.00;;
76848;SDS011;65814;51.134;16.980;2023-10-08T07:46:27;5.30;;;3.60;;
76848;SDS011;65814;51.134;16.980;2023-10-08T07:48:55;8.10;;;3.00;;
76848;SDS011;65814;51.134;16.980;2023-10-08T07:51:25;8.10;;;3.40;;
76848;SDS011;65814;51.134;16.980;2023-10-08T07:53:55;9.10;;;3.60;;
76848;SDS011;65814;51.134;16.980;2023-10-08T07:56:25;4.60;;;2.80;;
76848;SDS011;65814;51.134;16.980;2023-10-08T07:58:53;7.10;;;3.20;;
76848;SDS011;65814;51.134;16.980;2023-10-08T08:01:24;8.40;;;3.60;;
76848;SDS011;65814;51.134;16.980;2023-10-08T08:03:52;4.40;;;2.50;;
76848;SDS011;65814;51.134;16.980;2023-10-08T08:06:21;3.50;;;2.40;;
76848;SDS011;65814;51.134;16.980;2023-10-08T08:08:50;5.10;;;2.40;;
76848;SDS011;65814;51.134;16.980;2023-10-08T08:11:19;3.90;;;1.90;;
76848;SDS011;65814;51.134;16.980;2023-10-08T08:13:47;5.30;;;2.10;;
76848;SDS011;65814;51.134;16.980;2023-10-08T08:16:15;4.30;;;2.00;;
76848;SDS011;65814;51.134;16.980;2023-10-08T08:18:47;4.90;;;1.80;;
76848;SDS011;65814;51.134;16.980;2023-10-08T08:21:18;3.60;;;2.00;;
76848;SDS011;65814;51.134;16.980;2023-10-08T08:23:47;2.90;;;1.60;;
76848;SDS011;65814;51.134;16.980;2023-10-08T08:26:16;4.50;;;1.40;;
76848;SDS011;65814;51.134;16.980;2023-10-08T08:28:55;3.80;;;1.70;;
76848;SDS011;65814;51.134;16.980;2023-10-08T08:31:25;3.60;;;1.50;;
76848;SDS011;65814;51.134;16.980;2023-10-08T08:33:53;3.50;;;1.90;;
76848;SDS011;65814;51.134;16.980;2023-10-08T08:36:29;4.80;;;2.50;;
76848;SDS011;65814;51.134;16.980;2023-10-08T08:38:59;4.70;;;2.20;;
76848;SDS011;65814;51.134;16.980;2023-10-08T08:41:27;5.10;;;2.00;;
76848;SDS011;65814;51.134;16.980;2023-10-08T08:43:55;6.00;;;2.10;;
76848;SDS011;65814;51.134;16.980;2023-10-08T08:46:34;4.10;;;2.20;;
76848;SDS011;65814;51.134;16.980;2023-10-08T08:49:06;2.40;;;1.30;;
76848;SDS011;65814;51.134;16.980;2023-10-08T08:51:35;2.90;;;1.40;;
76848;SDS011;65814;51.134;16.980;2023-10-08T08:54:04;2.50;;;1.30;;
76848;SDS011;65814;51.134;16.980;2023-10-08T08:56:39;2.70;;;1.40;;
76848;SDS011;65814;51.134;16.980;2023-10-08T08:59:09;4.60;;;1.90;;
76848;SDS011;65814;51.134;16.980;2023-10-08T09:01:40;4.20;;;1.00;;
76848;SDS011;65814;51.134;16.980;2023-10-08T09:04:08;1.60;;;0.80;;
76848;SDS011;65814;51.134;16.980;2023-10-08T09:06:36;3.80;;;1.00;;
76848;SDS011;65814;51.134;16.980;2023-10-08T09:09:08;2.60;;;0.80;;
76848;SDS011;65814;51.134;16.980;2023-10-08T09:11:50;2.50;;;1.20;;
76848;SDS011;65814;51.134;16.980;2023-10-08T09:14:20;2.00;;;1.00;;
76848;SDS011;65814;51.134;16.980;2023-10-08T09:16:49;2.00;;;1.00;;
76848;SDS011;65814;51.134;16.980;2023-10-08T09:19:17;4.30;;;1.20;;
76848;SDS011;65814;51.134;16.980;2023-10-08T09:24:38;2.30;;;1.10;;
76848;SDS011;65814;51.134;16.980;2023-10-08T09:27:08;1.40;;;0.90;;
76848;SDS011;65814;51.134;16.980;2023-10-08T09:29:42;1.00;;;0.70;;
76848;SDS011;65814;51.134;16.980;2023-10-08T09:32:11;2.90;;;1.20;;
76848;SDS011;65814;51.134;16.980;2023-10-08T09:34:41;4.00;;;2.30;;
76848;SDS011;65814;51.134;16.980;2023-10-08T09:37:10;4.10;;;1.30;;
76848;SDS011;65814;51.134;16.980;2023-10-08T09:39:39;2.40;;;0.90;;
76848;SDS011;65814;51.134;16.980;2023-10-08T09:42:09;2.50;;;0.90;;
76848;SDS011;65814;51.134;16.980;2023-10-08T09:44:39;1.30;;;1.00;;
76848;SDS011;65814;51.134;16.980;2023-10-08T09:47:08;1.30;;;1.10;;
76848;SDS011;65814;51.134;16.980;2023-10-08T09:52:30;2.00;;;1.00;;
76848;SDS011;65814;51.134;16.980;2023-10-08T09:55:02;3.60;;;1.30;;
76848;SDS011;65814;51.134;16.980;2023-10-08T09:57:38;2.10;;;0.70;;
76848;SDS011;65814;51.134;16.980;2023-10-08T10:00:06;1.20;;;0.90;;
76848;SDS011;65814;51.134;16.980;2023-10-08T10:02:42;2.90;;;0.90;;
76848;SDS011;65814;51.134;16.980;2023-10-08T10:05:11;1.70;;;0.80;;
76848;SDS011;65814;51.134;16.980;2023-10-08T10:07:40;2.70;;;1.10;;
76848;SDS011;65814;51.134;16.980;2023-10-08T10:10:27;2.70;;;1.30;;
76848;SDS011;65814;51.134;16.980;2023-10-08T10:12:59;1.40;;;0.90;;
76848;SDS011;65814;51.134;16.980;2023-10-08T10:15:33;1.60;;;1.00;;
76848;SDS011;65814;51.134;16.980;2023-10-08T10:21:24;2.80;;;1.10;;
76848;SDS011;65814;51.134;16.980;2023-10-08T10:23:48;3.70;;;0.90;;
76848;SDS011;65814;51.134;16.980;2023-10-08T10:26:31;2.10;;;1.10;;
76848;SDS011;65814;51.134;16.980;2023-10-08T10:31:39;2.00;;;1.30;;
76848;SDS011;65814;51.134;16.980;2023-10-08T10:34:24;1.50;;;0.90;;
76848;SDS011;65814;51.134;16.980;2023-10-08T10:36:56;2.00;;;1.10;;
76848;SDS011;65814;51.134;16.980;2023-10-08T10:39:50;1.60;;;1.10;;
76848;SDS011;65814;51.134;16.980;2023-10-08T10:42:23;2.40;;;0.90;;
76848;SDS011;65814;51.134;16.980;2023-10-08T10:44:51;2.70;;;0.90;;
76848;SDS011;65814;51.134;16.980;2023-10-08T10:47:21;2.40;;;0.90;;
76848;SDS011;65814;51.134;16.980;2023-10-08T10:49:50;1.40;;;0.90;;
76848;SDS011;65814;51.134;16.980;2023-10-08T10:55:04;1.20;;;0.60;;
76848;SDS011;65814;51.134;16.980;2023-10-08T10:57:43;1.10;;;0.60;;
76848;SDS011;65814;51.134;16.980;2023-10-08T11:00:24;2.20;;;1.00;;
76848;SDS011;65814;51.134;16.980;2023-10-08T11:03:01;2.10;;;1.00;;
76848;SDS011;65814;51.134;16.980;2023-10-08T11:05:34;1.80;;;0.80;;
76848;SDS011;65814;51.134;16.980;2023-10-08T11:08:07;2.70;;;1.20;;
76848;SDS011;65814;51.134;16.980;2023-10-08T11:10:37;1.50;;;0.90;;
76848;SDS011;65814;51.134;16.980;2023-10-08T11:13:14;1.70;;;1.10;;
76848;SDS011;65814;51.134;16.980;2023-10-08T11:15:43;2.50;;;1.40;;
76848;SDS011;65814;51.134;16.980;2023-10-08T11:18:20;1.90;;;1.00;;
76848;SDS011;65814;51.134;16.980;2023-10-08T11:20:51;2.40;;;0.70;;
76848;SDS011;65814;51.134;16.980;2023-10-08T11:23:30;2.20;;;0.80;;
76848;SDS011;65814;51.134;16.980;2023-10-08T11:26:02;1.00;;;0.50;;
76848;SDS011;65814;51.134;16.980;2023-10-08T11:28:32;2.00;;;1.10;;
76848;SDS011;65814;51.134;16.980;2023-10-08T11:31:05;2.20;;;1.00;;
76848;SDS011;65814;51.134;16.980;2023-10-08T11:33:38;1.40;;;0.70;;
76848;SDS011;65814;51.134;16.980;2023-10-08T11:36:08;2.40;;;1.20;;
76848;SDS011;65814;51.134;16.980;2023-10-08T11:38:46;1.30;;;1.20;;
76848;SDS011;65814;51.134;16.980;2023-10-08T11:41:19;2.30;;;0.90;;
76848;SDS011;65814;51.134;16.980;2023-10-08T11:43:51;1.60;;;1.30;;
76848;SDS011;65814;51.134;16.980;2023-10-08T11:46:28;1.60;;;0.70;;
76848;SDS011;65814;51.134;16.980;2023-10-08T11:49:05;1.50;;;0.80;;
76848;SDS011;65814;51.134;16.980;2023-10-08T11:51:33;1.20;;;0.70;;
76848;SDS011;65814;51.134;16.980;2023-10-08T11:54:02;1.80;;;0.80;;
76848;SDS011;65814;51.134;16.980;2023-10-08T11:56:33;2.20;;;0.90;;
76848;SDS011;65814;51.134;16.980;2023-10-08T11:59:02;3.00;;;1.10;;
76848;SDS011;65814;51.134;16.980;2023-10-08T12:01:37;1.20;;;0.70;;
76848;SDS011;65814;51.134;16.980;2023-10-08T12:04:09;3.10;;;0.80;;
76848;SDS011;65814;51.134;16.980;2023-10-08T12:06:44;2.60;;;1.10;;
76848;SDS011;65814;51.134;16.980;2023-10-08T12:09:16;1.80;;;0.80;;
76848;SDS011;65814;51.134;16.980;2023-10-08T12:11:44;1.50;;;0.80;;
76848;SDS011;65814;51.134;16.980;2023-10-08T12:14:12;1.20;;;0.70;;
76848;SDS011;65814;51.134;16.980;2023-10-08T12:16:42;1.20;;;0.80;;
76848;SDS011;65814;51.134;16.980;2023-10-08T12:19:13;1.70;;;1.10;;
76848;SDS011;65814;51.134;16.980;2023-10-08T12:24:16;4.00;;;1.10;;
76848;SDS011;65814;51.134;16.980;2023-10-08T12:26:47;1.70;;;1.10;;
76848;SDS011;65814;51.134;16.980;2023-10-08T12:29:17;1.80;;;1.00;;
76848;SDS011;65814;51.134;16.980;2023-10-08T12:31:46;3.30;;;1.20;;
76848;SDS011;65814;51.134;16.980;2023-10-08T12:34:16;1.60;;;1.00;;
76848;SDS011;65814;51.134;16.980;2023-10-08T12:36:44;1.70;;;1.10;;
76848;SDS011;65814;51.134;16.980;2023-10-08T12:39:16;1.90;;;0.90;;
76848;SDS011;65814;51.134;16.980;2023-10-08T12:41:44;1.60;;;0.90;;
76848;SDS011;65814;51.134;16.980;2023-10-08T12:44:13;1.10;;;1.00;;
76848;SDS011;65814;51.134;16.980;2023-10-08T12:46:44;3.00;;;0.80;;
76848;SDS011;65814;51.134;16.980;2023-10-08T12:49:12;2.50;;;0.80;;
76848;SDS011;65814;51.134;16.980;2023-10-08T12:51:40;1.50;;;0.60;;
76848;SDS011;65814;51.134;16.980;2023-10-08T12:54:09;1.40;;;0.60;;
76848;SDS011;65814;51.134;16.980;2023-10-08T12:56:49;2.80;;;1.40;;
76848;SDS011;65814;51.134;16.980;2023-10-08T12:59:17;2.80;;;1.20;;
76848;SDS011;65814;51.134;16.980;2023-10-08T13:01:49;1.90;;;1.30;;
76848;SDS011;65814;51.134;16.980;2023-10-08T13:04:19;3.30;;;1.00;;
76848;SDS011;65814;51.134;16.980;2023-10-08T13:07:02;2.00;;;1.10;;
76848;SDS011;65814;51.134;16.980;2023-10-08T13:09:31;3.10;;;1.70;;
76848;SDS011;65814;51.134;16.980;2023-10-08T13:11:59;2.10;;;1.20;;
76848;SDS011;65814;51.134;16.980;2023-10-08T13:14:28;0.70;;;0.40;;
76848;SDS011;65814;51.134;16.980;2023-10-08T13:16:56;1.90;;;0.80;;
76848;SDS011;65814;51.134;16.980;2023-10-08T13:19:24;2.30;;;1.00;;
76848;SDS011;65814;51.134;16.980;2023-10-08T13:21:54;3.20;;;0.80;;
76848;SDS011;65814;51.134;16.980;2023-10-08T13:24:22;2.60;;;0.60;;
76848;SDS011;65814;51.134;16.980;2023-10-08T13:26:52;3.90;;;0.80;;
76848;SDS011;65814;51.134;16.980;2023-10-08T13:29:20;3.30;;;1.10;;
76848;SDS011;65814;51.134;16.980;2023-10-08T13:31:48;2.30;;;0.80;;
76848;SDS011;65814;51.134;16.980;2023-10-08T13:34:16;1.70;;;1.00;;
76848;SDS011;65814;51.134;16.980;2023-10-08T13:36:44;1.70;;;0.90;;
76848;SDS011;65814;51.134;16.980;2023-10-08T13:39:15;0.80;;;0.50;;
76848;SDS011;65814;51.134;16.980;2023-10-08T13:41:47;1.30;;;0.70;;
76848;SDS011;65814;51.134;16.980;2023-10-08T13:44:20;1.10;;;0.70;;
76848;SDS011;65814;51.134;16.980;2023-10-08T13:46:58;2.00;;;1.10;;
76848;SDS011;65814;51.134;16.980;2023-10-08T13:49:28;1.80;;;0.90;;
76848;SDS011;65814;51.134;16.980;2023-10-08T13:51:57;2.20;;;0.90;;
76848;SDS011;65814;51.134;16.980;2023-10-08T13:54:26;1.20;;;0.80;;
76848;SDS011;65814;51.134;16.980;2023-10-08T13:56:58;1.80;;;0.90;;
76848;SDS011;65814;51.134;16.980;2023-10-08T13:59:27;1.40;;;1.10;;
76848;SDS011;65814;51.134;16.980;2023-10-08T14:02:00;1.30;;;0.80;;
76848;SDS011;65814;51.134;16.980;2023-10-08T14:04:30;3.40;;;1.10;;
76848;SDS011;65814;51.134;16.980;2023-10-08T14:06:59;2.60;;;1.10;;
76848;SDS011;65814;51.134;16.980;2023-10-08T14:09:27;1.00;;;0.80;;
76848;SDS011;65814;51.134;16.980;2023-10-08T14:14:35;1.10;;;0.70;;
76848;SDS011;65814;51.134;16.980;2023-10-08T14:17:04;3.80;;;1.40;;
76848;SDS011;65814;51.134;16.980;2023-10-08T14:19:37;1.50;;;0.80;;
76848;SDS011;65814;51.134;16.980;2023-10-08T14:22:20;1.30;;;0.70;;
76848;SDS011;65814;51.134;16.980;2023-10-08T14:24:50;0.70;;;0.60;;
76848;SDS011;65814;51.134;16.980;2023-10-08T14:27:28;2.10;;;1.20;;
76848;SDS011;65814;51.134;16.980;2023-10-08T14:30:00;1.80;;;0.90;;
76848;SDS011;65814;51.134;16.980;2023-10-08T14:32:34;2.70;;;1.10;;
76848;SDS011;65814;51.134;16.980;2023-10-08T14:35:02;1.80;;;0.90;;
76848;SDS011;65814;51.134;16.980;2023-10-08T14:37:50;2.50;;;1.20;;
76848;SDS011;65814;51.134;16.980;2023-10-08T14:40:37;1.20;;;0.60;;
76848;SDS011;65814;51.134;16.980;2023-10-08T14:43:23;1.60;;;1.40;;
76848;SDS011;65814;51.134;16.980;2023-10-08T14:45:51;2.10;;;0.70;;
76848;SDS011;65814;51.134;16.980;2023-10-08T14:48:20;2.50;;;0.90;;
76848;SDS011;65814;51.134;16.980;2023-10-08T14:50:50;0.80;;;0.50;;
76848;SDS011;65814;51.134;16.980;2023-10-08T14:53:19;2.10;;;1.20;;
76848;SDS011;65814;51.134;16.980;2023-10-08T14:55:47;1.50;;;0.70;;
76848;SDS011;65814;51.134;16.980;2023-10-08T14:58:16;2.70;;;0.90;;
76848;SDS011;65814;51.134;16.980;2023-10-08T15:00:47;2.50;;;1.50;;
76848;SDS011;65814;51.134;16.980;2023-10-08T15:03:16;1.40;;;1.00;;
76848;SDS011;65814;51.134;16.980;2023-10-08T15:05:45;2.40;;;1.00;;
76848;SDS011;65814;51.134;16.980;2023-10-08T15:08:13;1.70;;;0.80;;
76848;SDS011;65814;51.134;16.980;2023-10-08T15:10:42;2.00;;;0.90;;
76848;SDS011;65814;51.134;16.980;2023-10-08T15:13:11;1.90;;;0.90;;
76848;SDS011;65814;51.134;16.980;2023-10-08T15:15:39;2.20;;;0.70;;
76848;SDS011;65814;51.134;16.980;2023-10-08T15:18:08;1.80;;;1.10;;
76848;SDS011;65814;51.134;16.980;2023-10-08T15:20:40;1.40;;;0.90;;
76848;SDS011;65814;51.134;16.980;2023-10-08T15:23:09;2.00;;;0.80;;
76848;SDS011;65814;51.134;16.980;2023-10-08T15:25:40;2.50;;;1.10;;
76848;SDS011;65814;51.134;16.980;2023-10-08T15:28:09;1.70;;;0.90;;
76848;SDS011;65814;51.134;16.980;2023-10-08T15:30:37;2.40;;;0.80;;
76848;SDS011;65814;51.134;16.980;2023-10-08T15:33:06;2.00;;;1.20;;
76848;SDS011;65814;51.134;16.980;2023-10-08T15:35:34;2.30;;;0.70;;